createdAt,value
2024-02-08T00:01:18.160Z,8.18
2024-02-08T00:03:45.041Z,8.19
2024-02-08T00:06:12.141Z,8.18
2024-02-08T00:08:38.987Z,8.15
2024-02-08T00:11:07.824Z,8.21
2024-02-08T00:13:35.880Z,8.21
2024-02-08T00:16:02.852Z,8.22
2024-02-08T00:18:29.805Z,8.20
2024-02-08T00:20:56.766Z,8.20
2024-02-08T00:23:23.656Z,8.21
2024-02-08T00:25:51.895Z,8.19
2024-02-08T00:28:18.876Z,8.20
2024-02-08T00:30:46.783Z,8.18
2024-02-08T00:33:14.033Z,8.20
2024-02-08T00:35:41.121Z,8.22
2024-02-08T00:38:08.244Z,8.22
2024-02-08T00:40:35.222Z,8.08
2024-02-08T00:43:07.867Z,8.23
2024-02-08T00:45:35.614Z,8.23
2024-02-08T00:48:03.433Z,8.24
2024-02-08T00:50:30.318Z,8.19
2024-02-08T00:52:58.424Z,8.19
2024-02-08T00:55:27.566Z,8.25
2024-02-08T00:57:56.066Z,8.23
2024-02-08T01:00:22.978Z,8.27
2024-02-08T01:02:49.822Z,8.20
2024-02-08T01:05:16.880Z,8.22
2024-02-08T01:07:43.978Z,8.29
2024-02-08T01:10:10.826Z,8.28
2024-02-08T01:12:37.750Z,8.24
2024-02-08T01:15:05.778Z,8.23
2024-02-08T01:17:33.792Z,8.21
2024-02-08T01:20:03.068Z,8.29
2024-02-08T01:22:30.442Z,8.19
2024-02-08T01:24:57.428Z,8.23
2024-02-08T01:27:24.552Z,8.29
2024-02-08T01:29:51.931Z,8.24
2024-02-08T01:32:19.421Z,8.22
2024-02-08T01:34:46.737Z,8.25
2024-02-08T01:37:16.489Z,8.27
2024-02-08T01:39:45.218Z,8.20
2024-02-08T01:42:15.989Z,8.28
2024-02-08T01:44:47.859Z,8.18
2024-02-08T01:47:19.054Z,8.21
2024-02-08T01:49:48.921Z,8.17
2024-02-08T01:52:20.752Z,8.22
2024-02-08T01:54:50.857Z,8.29
2024-02-08T01:57:18.427Z,8.28
2024-02-08T01:59:54.639Z,8.25
2024-02-08T02:02:25.446Z,8.31
2024-02-08T02:04:52.444Z,8.33
2024-02-08T02:07:21.100Z,8.27
2024-02-08T02:09:48.229Z,8.34
2024-02-08T02:12:19.016Z,8.33
2024-02-08T02:14:46.427Z,8.34
2024-02-08T02:17:20.448Z,8.36
2024-02-08T02:19:50.719Z,8.29
2024-02-08T02:22:20.729Z,8.19
2024-02-08T02:24:51.580Z,8.36
2024-02-08T02:27:19.319Z,8.40
2024-02-08T02:29:46.398Z,8.33
2024-02-08T02:32:17.279Z,8.37
2024-02-08T02:34:48.253Z,8.35
2024-02-08T02:37:16.083Z,8.33
2024-02-08T02:39:43.041Z,8.38
2024-02-08T02:42:10.461Z,8.23
2024-02-08T02:44:37.338Z,8.34
2024-02-08T02:47:07.541Z,8.40
2024-02-08T02:49:38.653Z,8.36
2024-02-08T02:52:10.928Z,8.32
2024-02-08T02:54:38.222Z,8.36
2024-02-08T02:57:05.342Z,8.42
2024-02-08T02:59:32.414Z,8.34
2024-02-08T03:01:59.537Z,8.38
2024-02-08T03:04:29.821Z,8.42
2024-02-08T03:06:57.027Z,8.41
2024-02-08T03:09:29.697Z,8.33
2024-02-08T03:11:59.952Z,8.43
2024-02-08T03:14:27.351Z,8.43
2024-02-08T03:16:58.062Z,8.38
2024-02-08T03:19:25.151Z,8.38
2024-02-08T03:21:52.075Z,8.38
2024-02-08T03:24:21.042Z,8.41
2024-02-08T03:26:48.679Z,8.29
2024-02-08T03:29:17.770Z,8.43
2024-02-08T03:31:48.078Z,8.39
2024-02-08T03:34:21.189Z,8.32
2024-02-08T03:36:48.240Z,8.43
2024-02-08T03:39:26.741Z,8.44
2024-02-08T03:42:03.160Z,8.45
2024-02-08T03:44:35.616Z,8.46
2024-02-08T03:47:13.834Z,8.41
2024-02-08T03:49:42.400Z,8.48
2024-02-08T03:52:12.024Z,8.43
2024-02-08T03:54:40.046Z,8.41
2024-02-08T03:57:07.741Z,8.50
2024-02-08T03:59:35.680Z,8.52
2024-02-08T04:02:04.809Z,8.46
2024-02-08T04:04:52.044Z,8.44
2024-02-08T04:07:44.824Z,8.44
2024-02-08T04:10:41.006Z,8.54
2024-02-08T04:13:26.466Z,8.49
2024-02-08T04:16:11.971Z,8.48
2024-02-08T04:18:57.375Z,8.53
2024-02-08T04:21:42.845Z,8.53
2024-02-08T04:24:28.241Z,8.47
2024-02-08T04:27:13.506Z,8.47
2024-02-08T04:29:58.971Z,8.54
2024-02-08T04:32:44.413Z,8.45
2024-02-08T04:35:36.315Z,8.50
2024-02-08T04:38:22.200Z,8.54
2024-02-08T04:41:07.884Z,8.50
2024-02-08T04:43:53.530Z,8.50
2024-02-08T04:46:45.580Z,8.54
2024-02-08T04:49:33.993Z,8.47
2024-02-08T04:52:19.737Z,8.54
2024-02-08T04:54:46.524Z,8.54
2024-02-08T04:57:13.339Z,8.48
2024-02-08T04:59:46.804Z,8.55
2024-02-08T05:02:15.663Z,8.52
2024-02-08T05:04:44.629Z,8.47
2024-02-08T05:07:12.170Z,8.56
2024-02-08T05:09:41.631Z,8.57
2024-02-08T05:12:12.624Z,8.58
2024-02-08T05:14:40.029Z,8.52
2024-02-08T05:17:10.853Z,8.50
2024-02-08T05:19:41.607Z,8.60
2024-02-08T05:22:08.657Z,8.61
2024-02-08T05:24:35.472Z,8.59
2024-02-08T05:27:03.385Z,8.61
2024-02-08T05:29:30.906Z,8.52
2024-02-08T05:31:59.409Z,8.54
2024-02-08T05:34:27.374Z,8.52
2024-02-08T05:36:57.043Z,8.54
2024-02-08T05:39:29.445Z,8.57
2024-02-08T05:41:58.151Z,8.47
2024-02-08T05:44:32.253Z,8.55
2024-02-08T05:47:09.698Z,8.62
2024-02-08T05:49:38.390Z,8.56
2024-02-08T05:52:08.366Z,8.58
2024-02-08T05:54:38.688Z,8.65
2024-02-08T05:57:08.713Z,8.58
2024-02-08T05:59:39.067Z,8.61
2024-02-08T06:02:25.497Z,8.63
2024-02-08T06:05:02.783Z,8.55
2024-02-08T06:07:32.664Z,8.52
2024-02-08T06:10:09.881Z,8.59
2024-02-08T06:12:47.881Z,8.62
2024-02-08T06:15:27.623Z,8.61
2024-02-08T06:18:06.071Z,8.70
2024-02-08T06:20:44.993Z,8.63
2024-02-08T06:23:20.448Z,8.74
2024-02-08T06:26:10.183Z,8.74
2024-02-08T06:28:48.455Z,8.74
2024-02-08T06:31:16.795Z,8.67
2024-02-08T06:34:04.913Z,8.75
2024-02-08T06:36:35.741Z,8.76
2024-02-08T06:39:24.318Z,8.76
2024-02-08T06:41:57.054Z,8.73
2024-02-08T06:44:38.885Z,8.78
2024-02-08T06:47:25.449Z,8.76
2024-02-08T06:50:13.201Z,8.82
2024-02-08T06:52:58.690Z,8.77
2024-02-08T06:55:44.089Z,8.84
2024-02-08T06:58:29.462Z,8.91
2024-02-08T07:01:14.961Z,8.95
2024-02-08T07:04:00.427Z,8.90
2024-02-08T07:06:45.904Z,8.90
2024-02-08T07:09:31.330Z,8.92
2024-02-08T07:12:16.731Z,9.04
2024-02-08T07:15:02.148Z,9.02
2024-02-08T07:17:47.675Z,8.89
2024-02-08T07:20:33.147Z,9.11
2024-02-08T07:23:18.992Z,9.05
2024-02-08T07:26:04.374Z,9.04
2024-02-08T07:29:03.475Z,9.22
2024-02-08T07:31:48.996Z,9.18
2024-02-08T07:34:34.429Z,9.22
2024-02-08T07:37:19.669Z,9.27
2024-02-08T07:40:02.870Z,9.32
2024-02-08T07:42:43.394Z,9.36
2024-02-08T07:45:14.509Z,9.31
2024-02-08T07:47:41.965Z,9.43
2024-02-08T07:50:10.024Z,9.46
2024-02-08T07:52:57.184Z,9.44
2024-02-08T07:55:34.674Z,9.52
2024-02-08T07:58:09.617Z,9.57
2024-02-08T08:00:39.465Z,9.61
2024-02-08T08:03:10.807Z,9.62
2024-02-08T08:05:43.205Z,9.68
2024-02-08T08:08:26.465Z,9.75
2024-02-08T08:10:58.424Z,9.87
2024-02-08T08:13:45.604Z,9.91
2024-02-08T08:16:31.227Z,9.91
2024-02-08T08:19:11.701Z,10.01
2024-02-08T08:22:00.787Z,10.12
2024-02-08T08:24:28.190Z,10.19
2024-02-08T08:27:08.344Z,10.33
2024-02-08T08:29:45.216Z,10.42
2024-02-08T08:32:31.561Z,10.58
2024-02-08T08:35:24.871Z,10.70
2024-02-08T08:38:10.322Z,10.77
2024-02-08T08:40:41.090Z,10.87
2024-02-08T08:43:21.025Z,10.96
2024-02-08T08:45:52.243Z,10.94
2024-02-08T08:48:23.352Z,11.00
2024-02-08T08:50:56.927Z,11.09
2024-02-08T08:53:37.414Z,11.12
2024-02-08T08:56:12.679Z,11.13
2024-02-08T08:58:41.440Z,10.98
2024-02-08T09:01:17.973Z,11.12
2024-02-08T09:03:58.321Z,11.10
2024-02-08T09:06:28.839Z,11.15
2024-02-08T09:08:58.448Z,11.16
2024-02-08T09:11:26.853Z,11.17
2024-02-08T09:13:54.901Z,11.24
2024-02-08T09:16:25.933Z,11.23
2024-02-08T09:19:01.094Z,11.21
2024-02-08T09:21:33.919Z,11.23
2024-02-08T09:24:05.537Z,11.26
2024-02-08T09:26:49.909Z,11.07
2024-02-08T09:29:31.281Z,11.33
2024-02-08T09:32:01.595Z,11.37
2024-02-08T09:34:41.602Z,11.41
2024-02-08T09:37:10.121Z,11.44
2024-02-08T09:39:55.321Z,11.53
2024-02-08T09:42:31.111Z,11.58
2024-02-08T09:45:15.815Z,11.63
2024-02-08T09:47:53.686Z,11.71
2024-02-08T09:50:37.716Z,11.76
2024-02-08T09:53:29.135Z,11.82
2024-02-08T09:56:06.972Z,11.87
2024-02-08T09:58:54.145Z,11.89
2024-02-08T10:01:36.644Z,11.96
2024-02-08T10:04:07.548Z,11.95
2024-02-08T10:06:47.433Z,12.14
2024-02-08T10:09:34.485Z,12.32
2024-02-08T10:12:09.028Z,12.64
2024-02-08T10:14:36.755Z,12.71
2024-02-08T10:17:25.946Z,13.01
2024-02-08T10:20:15.387Z,13.24
2024-02-08T10:22:55.226Z,13.39
2024-02-08T10:25:45.375Z,13.47
2024-02-08T10:28:15.119Z,13.68
2024-02-08T10:30:46.088Z,13.82
2024-02-08T10:33:16.853Z,14.09
2024-02-08T10:35:44.042Z,14.43
2024-02-08T10:38:53.516Z,14.57
2024-02-08T10:41:28.664Z,14.52
2024-02-08T10:43:58.754Z,14.54
2024-02-08T10:46:33.694Z,14.52
2024-02-08T10:49:10.800Z,14.49
2024-02-08T10:51:38.545Z,14.39
2024-02-08T10:54:10.064Z,14.29
2024-02-08T10:56:49.280Z,14.55
2024-02-08T10:59:25.279Z,14.43
2024-02-08T11:01:52.779Z,14.47
2024-02-08T11:04:30.648Z,14.51
2024-02-08T11:07:22.968Z,14.42
2024-02-08T11:09:49.921Z,14.33
2024-02-08T11:12:32.770Z,14.22
2024-02-08T11:15:14.703Z,13.95
2024-02-08T11:17:51.243Z,13.80
2024-02-08T11:20:44.099Z,13.70
2024-02-08T11:23:25.236Z,13.55
2024-02-08T11:25:55.401Z,13.38
2024-02-08T11:28:29.558Z,13.34
2024-02-08T11:30:56.769Z,13.26
2024-02-08T11:33:34.599Z,13.17
2024-02-08T11:36:14.627Z,13.04
2024-02-08T11:38:55.500Z,12.88
2024-02-08T11:41:27.394Z,12.83
2024-02-08T11:44:05.116Z,13.00
2024-02-08T11:46:40.000Z,13.11
2024-02-08T11:49:17.836Z,13.21
2024-02-08T11:51:50.621Z,13.23
2024-02-08T11:54:24.610Z,13.50
2024-02-08T11:56:53.235Z,13.72
2024-02-08T11:59:21.615Z,13.84
2024-02-08T12:01:50.974Z,13.94
2024-02-08T12:04:18.172Z,13.97
2024-02-08T12:06:47.833Z,13.88
2024-02-08T12:09:30.050Z,13.92
2024-02-08T12:11:56.907Z,13.87
2024-02-08T12:14:28.048Z,13.88
2024-02-08T12:16:59.092Z,13.88
2024-02-08T12:19:29.860Z,13.83
2024-02-08T12:22:00.627Z,13.87
2024-02-08T12:24:33.580Z,13.85
2024-02-08T12:27:16.780Z,13.82
2024-02-08T12:29:47.010Z,13.77
2024-02-08T12:32:18.050Z,13.78
2024-02-08T12:34:50.106Z,13.78
2024-02-08T12:37:21.124Z,13.75
2024-02-08T12:39:51.243Z,13.76
2024-02-08T12:42:19.905Z,13.77
2024-02-08T12:44:50.933Z,13.72
2024-02-08T12:47:19.375Z,13.75
2024-02-08T12:49:48.911Z,13.65
2024-02-08T12:52:18.493Z,13.69
2024-02-08T12:54:54.624Z,13.59
2024-02-08T12:57:23.671Z,13.71
2024-02-08T13:00:03.895Z,13.68
2024-02-08T13:02:35.051Z,13.67
2024-02-08T13:05:05.128Z,13.68
2024-02-08T13:07:36.414Z,13.65
2024-02-08T13:10:16.504Z,13.63
2024-02-08T13:12:46.284Z,13.60
2024-02-08T13:15:23.275Z,13.58
2024-02-08T13:17:52.591Z,13.50
2024-02-08T13:20:20.311Z,13.48
2024-02-08T13:22:48.696Z,13.38
2024-02-08T13:25:17.565Z,13.35
2024-02-08T13:27:51.742Z,13.20
2024-02-08T13:30:18.892Z,13.26
2024-02-08T13:32:50.942Z,13.25
2024-02-08T13:35:20.843Z,13.27
2024-02-08T13:37:55.612Z,13.20
2024-02-08T13:40:24.555Z,13.27
2024-02-08T13:43:01.001Z,13.25
2024-02-08T13:45:33.579Z,13.20
2024-02-08T13:48:03.057Z,13.17
2024-02-08T13:50:32.523Z,13.18
2024-02-08T13:53:05.332Z,13.09
2024-02-08T13:55:45.879Z,13.06
2024-02-08T13:58:20.252Z,12.97
2024-02-08T14:00:48.205Z,12.89
2024-02-08T14:03:24.795Z,12.86
2024-02-08T14:05:53.960Z,12.85
2024-02-08T14:08:25.724Z,12.79
2024-02-08T14:10:52.991Z,12.80
2024-02-08T14:13:31.280Z,12.82
2024-02-08T14:16:02.397Z,12.65
2024-02-08T14:18:34.375Z,12.71
2024-02-08T14:21:03.387Z,12.72
2024-02-08T14:23:50.957Z,12.70
2024-02-08T14:26:18.180Z,12.64
2024-02-08T14:28:48.588Z,12.67
2024-02-08T14:31:16.921Z,12.63
2024-02-08T14:33:47.591Z,12.59
2024-02-08T14:36:15.680Z,12.54
2024-02-08T14:38:46.862Z,12.46
2024-02-08T14:41:28.100Z,12.43
2024-02-08T14:43:56.670Z,12.28
2024-02-08T14:46:27.816Z,12.30
2024-02-08T14:48:55.783Z,12.22
2024-02-08T14:51:25.704Z,12.15
2024-02-08T14:53:59.510Z,12.08
2024-02-08T14:56:26.775Z,11.89
2024-02-08T14:59:10.808Z,11.93
2024-02-08T15:01:43.586Z,11.92
2024-02-08T15:04:18.941Z,11.79
2024-02-08T15:07:07.710Z,11.85
2024-02-08T15:09:36.331Z,11.78
2024-02-08T15:12:23.022Z,11.72
2024-02-08T15:14:50.169Z,11.68
2024-02-08T15:17:20.358Z,11.72
2024-02-08T15:19:48.451Z,11.70
2024-02-08T15:22:41.319Z,11.66
2024-02-08T15:25:08.772Z,11.66
2024-02-08T15:27:49.666Z,11.46
2024-02-08T15:30:18.668Z,11.57
2024-02-08T15:32:59.999Z,11.51
2024-02-08T15:35:47.572Z,11.55
2024-02-08T15:38:21.161Z,11.52
2024-02-08T15:40:57.107Z,11.43
2024-02-08T15:43:27.279Z,11.44
2024-02-08T15:45:55.933Z,11.40
2024-02-08T15:48:35.744Z,11.37
2024-02-08T15:51:10.672Z,11.32
2024-02-08T15:53:50.943Z,11.30
2024-02-08T15:56:21.057Z,11.26
2024-02-08T15:58:54.628Z,11.14
2024-02-08T16:01:41.858Z,11.13
2024-02-08T16:04:29.155Z,11.08
2024-02-08T16:06:56.482Z,11.03
2024-02-08T16:09:27.779Z,11.14
2024-02-08T16:12:01.683Z,11.06
2024-02-08T16:14:30.574Z,11.04
2024-02-08T16:17:08.787Z,10.92
2024-02-08T16:19:52.679Z,10.97
2024-02-08T16:22:25.860Z,10.95
2024-02-08T16:24:53.808Z,10.94
2024-02-08T16:27:21.140Z,10.89
2024-02-08T16:30:06.997Z,10.86
2024-02-08T16:32:40.762Z,10.77
2024-02-08T16:35:26.336Z,10.79
2024-02-08T16:37:53.355Z,10.76
2024-02-08T16:40:31.317Z,10.76
2024-02-08T16:43:12.044Z,10.73
2024-02-08T16:45:59.564Z,10.75
2024-02-08T16:48:34.748Z,10.70
2024-02-08T16:51:11.115Z,10.73
2024-02-08T16:53:41.291Z,10.76
2024-02-08T16:56:12.080Z,10.74
2024-02-08T16:58:39.822Z,10.76
2024-02-08T17:01:20.394Z,10.71
2024-02-08T17:04:13.744Z,10.73
2024-02-08T17:07:00.074Z,10.71
2024-02-08T17:09:35.282Z,10.69
2024-02-08T17:12:06.697Z,10.67
2024-02-08T17:14:48.233Z,10.69
2024-02-08T17:17:15.490Z,10.67
2024-02-08T17:19:48.340Z,10.56
2024-02-08T17:22:34.337Z,10.48
2024-02-08T17:25:13.247Z,10.63
2024-02-08T17:27:50.681Z,10.61
2024-02-08T17:30:38.229Z,10.51
2024-02-08T17:33:13.130Z,10.53
2024-02-08T17:35:41.615Z,10.49
2024-02-08T17:38:08.638Z,10.33
2024-02-08T17:40:35.781Z,10.34
2024-02-08T17:43:12.075Z,10.32
2024-02-08T17:45:57.800Z,10.39
2024-02-08T17:48:30.261Z,10.36
2024-02-08T17:51:00.310Z,10.15
2024-02-08T17:53:29.435Z,10.31
2024-02-08T17:55:56.500Z,10.17
2024-02-08T17:58:26.328Z,10.21
2024-02-08T18:00:53.502Z,10.26
2024-02-08T18:03:27.289Z,10.22
2024-02-08T18:05:57.153Z,10.27
2024-02-08T18:08:27.610Z,10.22
2024-02-08T18:10:54.846Z,10.27
2024-02-08T18:13:28.184Z,10.22
2024-02-08T18:15:55.667Z,10.08
2024-02-08T18:18:25.744Z,10.26
2024-02-08T18:20:59.650Z,10.26
2024-02-08T18:23:30.700Z,10.25
2024-02-08T18:25:57.566Z,10.16
2024-02-08T18:28:27.106Z,10.21
2024-02-08T18:31:01.619Z,10.20
2024-02-08T18:33:29.344Z,10.29
2024-02-08T18:35:59.613Z,10.16
2024-02-08T18:38:27.362Z,10.30
2024-02-08T18:41:02.637Z,10.28
2024-02-08T18:43:29.823Z,10.27
2024-02-08T18:45:57.370Z,10.29
2024-02-08T18:48:25.033Z,10.25
2024-02-08T18:50:53.875Z,10.28
2024-02-08T18:53:21.262Z,10.28
2024-02-08T18:55:52.758Z,10.27
2024-02-08T18:58:20.453Z,10.27
2024-02-08T19:00:51.276Z,10.27
2024-02-08T19:03:21.870Z,10.13
2024-02-08T19:05:50.500Z,10.19
2024-02-08T19:08:21.714Z,10.27
2024-02-08T19:10:54.071Z,10.23
2024-02-08T19:13:28.931Z,10.30
2024-02-08T19:16:03.303Z,10.29
2024-02-08T19:18:45.731Z,10.27
2024-02-08T19:21:16.854Z,10.26
2024-02-08T19:23:46.984Z,10.25
2024-02-08T19:26:23.578Z,10.16
2024-02-08T19:28:54.264Z,10.18
2024-02-08T19:31:25.290Z,10.17
2024-02-08T19:33:53.816Z,10.12
2024-02-08T19:36:24.530Z,10.12
2024-02-08T19:38:55.914Z,10.02
2024-02-08T19:41:23.517Z,10.03
2024-02-08T19:43:50.688Z,10.09
2024-02-08T19:46:18.771Z,10.10
2024-02-08T19:49:03.121Z,9.99
2024-02-08T19:51:32.387Z,10.05
2024-02-08T19:54:00.531Z,10.09
2024-02-08T19:56:35.095Z,10.10
2024-02-08T19:59:06.638Z,10.05
2024-02-08T20:01:37.643Z,10.06
2024-02-08T20:04:06.118Z,10.09
2024-02-08T20:06:35.638Z,10.04
2024-02-08T20:09:09.554Z,9.99
2024-02-08T20:11:40.488Z,10.05
2024-02-08T20:14:07.838Z,10.09
2024-02-08T20:16:37.290Z,10.06
2024-02-08T20:19:10.663Z,10.13
2024-02-08T20:21:39.328Z,10.13
2024-02-08T20:24:13.118Z,10.12
2024-02-08T20:26:44.222Z,10.10
2024-02-08T20:29:16.077Z,10.07
2024-02-08T20:31:46.500Z,10.12
2024-02-08T20:34:14.486Z,10.13
2024-02-08T20:36:41.577Z,10.11
2024-02-08T20:39:19.735Z,10.03
2024-02-08T20:41:50.971Z,10.04
2024-02-08T20:44:19.200Z,9.92
2024-02-08T20:46:49.976Z,10.05
2024-02-08T20:49:22.103Z,10.07
2024-02-08T20:51:49.728Z,10.01
2024-02-08T20:54:16.636Z,10.01
2024-02-08T20:56:44.786Z,10.05
2024-02-08T20:59:12.106Z,10.03
2024-02-08T21:01:39.044Z,10.07
2024-02-08T21:04:11.964Z,10.07
2024-02-08T21:06:41.869Z,10.03
2024-02-08T21:09:11.134Z,9.97
2024-02-08T21:11:37.947Z,9.99
2024-02-08T21:14:05.393Z,10.06
2024-02-08T21:16:33.355Z,10.06
2024-02-08T21:19:02.789Z,10.02
2024-02-08T21:21:33.239Z,10.08
2024-02-08T21:24:00.791Z,9.97
2024-02-08T21:26:27.939Z,9.98
2024-02-08T21:28:55.433Z,9.84
2024-02-08T21:31:22.351Z,10.00
2024-02-08T21:33:53.752Z,9.93
2024-02-08T21:36:22.575Z,9.92
2024-02-08T21:38:52.181Z,9.85
2024-02-08T21:41:19.586Z,9.83
2024-02-08T21:43:49.121Z,9.86
2024-02-08T21:46:18.792Z,9.89
2024-02-08T21:48:48.061Z,9.86
2024-02-08T21:51:17.146Z,9.82
2024-02-08T21:53:43.998Z,9.73
2024-02-08T21:56:15.676Z,9.78
2024-02-08T21:58:44.605Z,9.78
2024-02-08T22:03:55.853Z,9.69
2024-02-08T22:06:26.640Z,9.61
2024-02-08T22:08:53.529Z,9.63
2024-02-08T22:11:20.604Z,9.62
2024-02-08T22:13:47.503Z,9.49
2024-02-08T22:16:23.461Z,9.55
2024-02-08T22:18:50.445Z,9.49
2024-02-08T22:21:18.035Z,9.43
2024-02-08T22:23:45.618Z,9.47
2024-02-08T22:26:14.098Z,9.40
2024-02-08T22:28:42.916Z,9.34
2024-02-08T22:31:12.530Z,9.41
2024-02-08T22:33:39.956Z,9.40
2024-02-08T22:36:07.991Z,9.37
2024-02-08T22:38:34.895Z,9.30
2024-02-08T22:41:01.793Z,9.26
2024-02-08T22:43:28.811Z,9.32
2024-02-08T22:45:56.245Z,9.27
2024-02-08T22:48:23.478Z,9.35
2024-02-08T22:50:52.604Z,9.34
2024-02-08T22:53:21.272Z,9.32
2024-02-08T22:55:52.276Z,9.23
2024-02-08T22:58:21.247Z,9.17
2024-02-08T23:00:50.218Z,9.29
2024-02-08T23:03:18.440Z,9.12
2024-02-08T23:05:51.916Z,9.29
2024-02-08T23:08:18.737Z,9.26
2024-02-08T23:10:45.587Z,9.27
2024-02-08T23:13:12.682Z,9.27
2024-02-08T23:15:47.350Z,9.11
2024-02-08T23:18:23.652Z,9.09
2024-02-08T23:20:55.029Z,9.21
2024-02-08T23:23:21.876Z,9.25
2024-02-08T23:25:49.750Z,9.09
2024-02-08T23:28:17.024Z,9.07
2024-02-08T23:30:45.980Z,9.14
2024-02-08T23:33:14.922Z,9.15
2024-02-08T23:35:41.882Z,9.18
2024-02-08T23:38:10.153Z,9.28
2024-02-08T23:40:37.108Z,9.29
2024-02-08T23:43:08.977Z,9.23
2024-02-08T23:45:40.670Z,9.31
2024-02-08T23:48:10.266Z,9.27
2024-02-08T23:50:37.761Z,9.27
2024-02-08T23:53:05.727Z,9.33
2024-02-08T23:55:36.763Z,9.23
2024-02-08T23:58:05.627Z,9.40
